sensor_id;sensor_type;location;lat;lon;timestamp;P1;durP1;ratioP1;P2;durP2;ratioP2
59109;SDS011;44895;47.438;18.978;2024-01-15T00:02:47;49.75;;;28.02;;
59109;SDS011;44895;47.438;18.978;2024-01-15T00:05:51;48.17;;;31.33;;
59109;SDS011;44895;47.438;18.978;2024-01-15T00:08:54;48.90;;;30.38;;
59109;SDS011;44895;47.438;18.978;2024-01-15T00:11:58;49.33;;;32.97;;
59109;SDS011;44895;47.438;18.978;2024-01-15T00:15:03;53.97;;;32.30;;
59109;SDS011;44895;47.438;18.978;2024-01-15T00:18:08;52.38;;;33.65;;
59109;SDS011;44895;47.438;18.978;2024-01-15T00:21:12;48.72;;;31.98;;
59109;SDS011;44895;47.438;18.978;2024-01-15T00:24:15;50.92;;;33.45;;
59109;SDS011;44895;47.438;18.978;2024-01-15T00:27:19;56.63;;;33.10;;
59109;SDS011;44895;47.438;18.978;2024-01-15T00:30:23;53.83;;;34.13;;
59109;SDS011;44895;47.438;18.978;2024-01-15T00:33:27;53.40;;;35.95;;
59109;SDS011;44895;47.438;18.978;2024-01-15T00:36:30;49.03;;;33.30;;
59109;SDS011;44895;47.438;18.978;2024-01-15T00:39:34;55.40;;;35.53;;
59109;SDS011;44895;47.438;18.978;2024-01-15T00:42:38;44.80;;;30.52;;
59109;SDS011;44895;47.438;18.978;2024-01-15T00:45:42;46.30;;;33.05;;
59109;SDS011;44895;47.438;18.978;2024-01-15T00:48:46;49.28;;;29.67;;
59109;SDS011;44895;47.438;18.978;2024-01-15T00:51:50;52.55;;;35.35;;
59109;SDS011;44895;47.438;18.978;2024-01-15T00:54:54;44.00;;;30.35;;
59109;SDS011;44895;47.438;18.978;2024-01-15T00:57:58;48.10;;;31.67;;
59109;SDS011;44895;47.438;18.978;2024-01-15T01:01:02;43.20;;;30.42;;
59109;SDS011;44895;47.438;18.978;2024-01-15T01:04:05;50.33;;;33.97;;
59109;SDS011;44895;47.438;18.978;2024-01-15T01:07:09;54.08;;;33.17;;
59109;SDS011;44895;47.438;18.978;2024-01-15T01:10:12;45.38;;;29.90;;
59109;SDS011;44895;47.438;18.978;2024-01-15T01:13:16;46.88;;;31.27;;
59109;SDS011;44895;47.438;18.978;2024-01-15T01:16:20;56.17;;;31.15;;
59109;SDS011;44895;47.438;18.978;2024-01-15T01:19:24;53.42;;;34.55;;
59109;SDS011;44895;47.438;18.978;2024-01-15T01:22:28;47.28;;;28.20;;
59109;SDS011;44895;47.438;18.978;2024-01-15T01:25:32;50.50;;;31.42;;
59109;SDS011;44895;47.438;18.978;2024-01-15T01:28:35;52.80;;;33.30;;
59109;SDS011;44895;47.438;18.978;2024-01-15T01:31:45;52.70;;;30.65;;
59109;SDS011;44895;47.438;18.978;2024-01-15T01:34:49;50.75;;;32.60;;
59109;SDS011;44895;47.438;18.978;2024-01-15T01:37:53;58.72;;;34.20;;
59109;SDS011;44895;47.438;18.978;2024-01-15T01:40:56;51.65;;;33.97;;
59109;SDS011;44895;47.438;18.978;2024-01-15T01:44:00;49.15;;;32.88;;
59109;SDS011;44895;47.438;18.978;2024-01-15T01:47:04;49.67;;;31.88;;
59109;SDS011;44895;47.438;18.978;2024-01-15T01:50:09;50.08;;;31.52;;
59109;SDS011;44895;47.438;18.978;2024-01-15T01:53:12;53.30;;;30.70;;
59109;SDS011;44895;47.438;18.978;2024-01-15T01:56:16;50.40;;;33.95;;
59109;SDS011;44895;47.438;18.978;2024-01-15T01:59:20;49.80;;;32.35;;
59109;SDS011;44895;47.438;18.978;2024-01-15T02:02:26;48.92;;;29.33;;
59109;SDS011;44895;47.438;18.978;2024-01-15T02:05:30;50.47;;;33.00;;
59109;SDS011;44895;47.438;18.978;2024-01-15T02:08:34;46.97;;;29.52;;
59109;SDS011;44895;47.438;18.978;2024-01-15T02:11:38;48.03;;;30.30;;
59109;SDS011;44895;47.438;18.978;2024-01-15T02:14:42;49.33;;;30.73;;
59109;SDS011;44895;47.438;18.978;2024-01-15T02:17:59;47.42;;;29.42;;
59109;SDS011;44895;47.438;18.978;2024-01-15T02:21:06;43.92;;;28.35;;
59109;SDS011;44895;47.438;18.978;2024-01-15T02:24:10;42.83;;;29.35;;
59109;SDS011;44895;47.438;18.978;2024-01-15T02:27:14;46.58;;;29.33;;
59109;SDS011;44895;47.438;18.978;2024-01-15T02:30:18;42.97;;;30.65;;
59109;SDS011;44895;47.438;18.978;2024-01-15T02:33:22;45.40;;;29.95;;
59109;SDS011;44895;47.438;18.978;2024-01-15T02:36:25;47.40;;;32.45;;
59109;SDS011;44895;47.438;18.978;2024-01-15T02:39:29;52.25;;;33.85;;
59109;SDS011;44895;47.438;18.978;2024-01-15T02:42:33;49.75;;;30.65;;
59109;SDS011;44895;47.438;18.978;2024-01-15T02:45:37;50.55;;;31.08;;
59109;SDS011;44895;47.438;18.978;2024-01-15T02:48:40;51.38;;;32.45;;
59109;SDS011;44895;47.438;18.978;2024-01-15T02:51:44;43.90;;;28.67;;
59109;SDS011;44895;47.438;18.978;2024-01-15T02:54:48;40.75;;;28.35;;
59109;SDS011;44895;47.438;18.978;2024-01-15T02:57:51;47.83;;;31.80;;
59109;SDS011;44895;47.438;18.978;2024-01-15T03:00:55;46.25;;;28.90;;
59109;SDS011;44895;47.438;18.978;2024-01-15T03:03:59;45.90;;;31.15;;
59109;SDS011;44895;47.438;18.978;2024-01-15T03:07:03;48.28;;;30.42;;
59109;SDS011;44895;47.438;18.978;2024-01-15T03:10:07;50.65;;;30.45;;
59109;SDS011;44895;47.438;18.978;2024-01-15T03:13:11;47.13;;;28.83;;
59109;SDS011;44895;47.438;18.978;2024-01-15T03:16:15;46.70;;;30.10;;
59109;SDS011;44895;47.438;18.978;2024-01-15T03:19:18;41.65;;;27.92;;
59109;SDS011;44895;47.438;18.978;2024-01-15T03:22:22;45.78;;;28.58;;
59109;SDS011;44895;47.438;18.978;2024-01-15T03:25:26;44.45;;;26.98;;
59109;SDS011;44895;47.438;18.978;2024-01-15T03:28:30;41.58;;;28.42;;
59109;SDS011;44895;47.438;18.978;2024-01-15T03:31:33;43.17;;;28.65;;
59109;SDS011;44895;47.438;18.978;2024-01-15T03:34:37;48.50;;;31.50;;
59109;SDS011;44895;47.438;18.978;2024-01-15T03:37:41;45.22;;;29.52;;
59109;SDS011;44895;47.438;18.978;2024-01-15T03:40:45;49.25;;;29.40;;
59109;SDS011;44895;47.438;18.978;2024-01-15T03:43:50;47.40;;;30.63;;
59109;SDS011;44895;47.438;18.978;2024-01-15T03:46:53;43.70;;;26.75;;
59109;SDS011;44895;47.438;18.978;2024-01-15T03:49:57;46.60;;;29.55;;
59109;SDS011;44895;47.438;18.978;2024-01-15T03:53:01;44.10;;;26.73;;
59109;SDS011;44895;47.438;18.978;2024-01-15T03:56:05;40.60;;;27.23;;
59109;SDS011;44895;47.438;18.978;2024-01-15T03:59:09;47.28;;;29.73;;
59109;SDS011;44895;47.438;18.978;2024-01-15T04:02:12;44.05;;;28.65;;
59109;SDS011;44895;47.438;18.978;2024-01-15T04:05:17;42.45;;;27.67;;
59109;SDS011;44895;47.438;18.978;2024-01-15T04:08:20;43.65;;;29.15;;
59109;SDS011;44895;47.438;18.978;2024-01-15T04:11:24;40.85;;;25.63;;
59109;SDS011;44895;47.438;18.978;2024-01-15T04:14:28;41.17;;;27.00;;
59109;SDS011;44895;47.438;18.978;2024-01-15T04:17:31;43.72;;;29.38;;
59109;SDS011;44895;47.438;18.978;2024-01-15T04:20:35;43.35;;;29.42;;
59109;SDS011;44895;47.438;18.978;2024-01-15T04:23:39;38.80;;;25.83;;
59109;SDS011;44895;47.438;18.978;2024-01-15T04:26:43;45.30;;;28.73;;
59109;SDS011;44895;47.438;18.978;2024-01-15T04:29:47;51.75;;;31.48;;
59109;SDS011;44895;47.438;18.978;2024-01-15T04:32:51;39.17;;;28.35;;
59109;SDS011;44895;47.438;18.978;2024-01-15T04:35:54;46.10;;;27.40;;
59109;SDS011;44895;47.438;18.978;2024-01-15T04:38:57;43.42;;;28.67;;
59109;SDS011;44895;47.438;18.978;2024-01-15T04:42:01;35.00;;;25.15;;
59109;SDS011;44895;47.438;18.978;2024-01-15T04:45:05;49.38;;;30.20;;
59109;SDS011;44895;47.438;18.978;2024-01-15T04:48:09;52.80;;;32.15;;
59109;SDS011;44895;47.438;18.978;2024-01-15T04:51:13;41.10;;;27.70;;
59109;SDS011;44895;47.438;18.978;2024-01-15T04:54:16;37.25;;;26.80;;
59109;SDS011;44895;47.438;18.978;2024-01-15T04:57:21;41.03;;;27.05;;
59109;SDS011;44895;47.438;18.978;2024-01-15T05:00:24;42.08;;;27.98;;
59109;SDS011;44895;47.438;18.978;2024-01-15T05:03:28;41.42;;;29.92;;
59109;SDS011;44895;47.438;18.978;2024-01-15T05:06:31;42.58;;;26.08;;
59109;SDS011;44895;47.438;18.978;2024-01-15T05:09:35;44.88;;;27.63;;
59109;SDS011;44895;47.438;18.978;2024-01-15T05:12:39;45.25;;;29.48;;
59109;SDS011;44895;47.438;18.978;2024-01-15T05:15:43;46.42;;;28.63;;
59109;SDS011;44895;47.438;18.978;2024-01-15T05:18:46;52.00;;;33.92;;
59109;SDS011;44895;47.438;18.978;2024-01-15T05:21:50;47.50;;;30.02;;
59109;SDS011;44895;47.438;18.978;2024-01-15T05:24:54;48.33;;;32.38;;
59109;SDS011;44895;47.438;18.978;2024-01-15T05:27:58;50.40;;;32.05;;
59109;SDS011;44895;47.438;18.978;2024-01-15T05:31:02;47.75;;;33.97;;
59109;SDS011;44895;47.438;18.978;2024-01-15T05:34:06;53.17;;;32.70;;
59109;SDS011;44895;47.438;18.978;2024-01-15T05:37:10;48.40;;;30.65;;
59109;SDS011;44895;47.438;18.978;2024-01-15T05:40:14;45.55;;;32.10;;
59109;SDS011;44895;47.438;18.978;2024-01-15T05:43:18;56.58;;;31.98;;
59109;SDS011;44895;47.438;18.978;2024-01-15T05:46:22;54.88;;;33.17;;
59109;SDS011;44895;47.438;18.978;2024-01-15T05:49:26;57.22;;;35.63;;
59109;SDS011;44895;47.438;18.978;2024-01-15T05:52:29;50.05;;;34.22;;
59109;SDS011;44895;47.438;18.978;2024-01-15T05:55:34;45.20;;;29.83;;
59109;SDS011;44895;47.438;18.978;2024-01-15T05:58:39;52.95;;;33.38;;
59109;SDS011;44895;47.438;18.978;2024-01-15T06:01:43;49.55;;;30.98;;
59109;SDS011;44895;47.438;18.978;2024-01-15T06:04:47;52.28;;;34.42;;
59109;SDS011;44895;47.438;18.978;2024-01-15T06:07:51;58.40;;;35.50;;
59109;SDS011;44895;47.438;18.978;2024-01-15T06:10:56;50.13;;;33.58;;
59109;SDS011;44895;47.438;18.978;2024-01-15T06:14:00;61.60;;;36.50;;
59109;SDS011;44895;47.438;18.978;2024-01-15T06:17:03;54.97;;;32.47;;
59109;SDS011;44895;47.438;18.978;2024-01-15T06:20:07;52.13;;;33.55;;
59109;SDS011;44895;47.438;18.978;2024-01-15T06:23:12;56.05;;;32.22;;
59109;SDS011;44895;47.438;18.978;2024-01-15T06:26:16;48.28;;;31.83;;
59109;SDS011;44895;47.438;18.978;2024-01-15T06:29:19;46.28;;;30.05;;
59109;SDS011;44895;47.438;18.978;2024-01-15T06:32:23;47.35;;;32.53;;
59109;SDS011;44895;47.438;18.978;2024-01-15T06:35:27;49.55;;;31.38;;
59109;SDS011;44895;47.438;18.978;2024-01-15T06:38:30;49.58;;;29.77;;
59109;SDS011;44895;47.438;18.978;2024-01-15T06:41:34;41.13;;;28.50;;
59109;SDS011;44895;47.438;18.978;2024-01-15T06:44:38;47.80;;;29.52;;
59109;SDS011;44895;47.438;18.978;2024-01-15T06:47:42;42.95;;;27.05;;
59109;SDS011;44895;47.438;18.978;2024-01-15T06:50:45;44.05;;;29.23;;
59109;SDS011;44895;47.438;18.978;2024-01-15T06:53:49;46.70;;;27.42;;
59109;SDS011;44895;47.438;18.978;2024-01-15T06:56:53;41.63;;;29.15;;
59109;SDS011;44895;47.438;18.978;2024-01-15T06:59:57;43.58;;;29.27;;
59109;SDS011;44895;47.438;18.978;2024-01-15T07:03:01;38.50;;;28.48;;
59109;SDS011;44895;47.438;18.978;2024-01-15T07:06:04;42.97;;;28.67;;
59109;SDS011;44895;47.438;18.978;2024-01-15T07:09:09;44.53;;;29.52;;
59109;SDS011;44895;47.438;18.978;2024-01-15T07:12:14;50.53;;;30.45;;
59109;SDS011;44895;47.438;18.978;2024-01-15T07:15:18;44.00;;;30.45;;
59109;SDS011;44895;47.438;18.978;2024-01-15T07:18:22;47.83;;;31.33;;
59109;SDS011;44895;47.438;18.978;2024-01-15T07:21:26;50.30;;;29.90;;
59109;SDS011;44895;47.438;18.978;2024-01-15T07:24:30;48.30;;;31.75;;
59109;SDS011;44895;47.438;18.978;2024-01-15T07:27:34;48.38;;;31.15;;
59109;SDS011;44895;47.438;18.978;2024-01-15T07:30:37;47.13;;;29.90;;
59109;SDS011;44895;47.438;18.978;2024-01-15T07:33:44;49.05;;;33.15;;
59109;SDS011;44895;47.438;18.978;2024-01-15T07:36:47;54.00;;;32.75;;
59109;SDS011;44895;47.438;18.978;2024-01-15T07:39:51;46.83;;;28.55;;
59109;SDS011;44895;47.438;18.978;2024-01-15T07:42:55;48.50;;;31.63;;
59109;SDS011;44895;47.438;18.978;2024-01-15T07:45:59;44.83;;;31.67;;
59109;SDS011;44895;47.438;18.978;2024-01-15T07:49:03;42.97;;;29.67;;
59109;SDS011;44895;47.438;18.978;2024-01-15T07:52:09;48.28;;;30.52;;
59109;SDS011;44895;47.438;18.978;2024-01-15T07:55:13;44.40;;;29.83;;
59109;SDS011;44895;47.438;18.978;2024-01-15T07:58:17;46.58;;;30.52;;
59109;SDS011;44895;47.438;18.978;2024-01-15T08:01:21;43.45;;;31.45;;
59109;SDS011;44895;47.438;18.978;2024-01-15T08:04:24;45.78;;;30.80;;
59109;SDS011;44895;47.438;18.978;2024-01-15T08:07:28;46.03;;;29.73;;
59109;SDS011;44895;47.438;18.978;2024-01-15T08:10:32;46.28;;;31.15;;
59109;SDS011;44895;47.438;18.978;2024-01-15T08:13:36;45.67;;;29.55;;
59109;SDS011;44895;47.438;18.978;2024-01-15T08:16:40;44.88;;;28.77;;
59109;SDS011;44895;47.438;18.978;2024-01-15T08:19:43;41.13;;;25.30;;
59109;SDS011;44895;47.438;18.978;2024-01-15T08:22:47;34.13;;;25.10;;
59109;SDS011;44895;47.438;18.978;2024-01-15T08:25:51;34.92;;;23.45;;
59109;SDS011;44895;47.438;18.978;2024-01-15T08:28:55;40.50;;;24.73;;
59109;SDS011;44895;47.438;18.978;2024-01-15T08:31:59;29.73;;;20.60;;
59109;SDS011;44895;47.438;18.978;2024-01-15T08:35:02;35.15;;;21.02;;
59109;SDS011;44895;47.438;18.978;2024-01-15T08:38:07;33.15;;;20.52;;
59109;SDS011;44895;47.438;18.978;2024-01-15T08:41:11;26.30;;;19.75;;
59109;SDS011;44895;47.438;18.978;2024-01-15T08:44:15;28.05;;;19.48;;
59109;SDS011;44895;47.438;18.978;2024-01-15T08:47:19;34.00;;;19.15;;
59109;SDS011;44895;47.438;18.978;2024-01-15T08:50:23;27.02;;;17.45;;
59109;SDS011;44895;47.438;18.978;2024-01-15T08:53:27;25.75;;;18.13;;
59109;SDS011;44895;47.438;18.978;2024-01-15T08:56:31;28.90;;;18.33;;
59109;SDS011;44895;47.438;18.978;2024-01-15T08:59:34;23.65;;;17.02;;
59109;SDS011;44895;47.438;18.978;2024-01-15T09:02:38;26.48;;;18.40;;
59109;SDS011;44895;47.438;18.978;2024-01-15T09:05:42;28.63;;;19.02;;
59109;SDS011;44895;47.438;18.978;2024-01-15T09:08:46;27.42;;;19.40;;
59109;SDS011;44895;47.438;18.978;2024-01-15T09:11:49;30.35;;;18.70;;
59109;SDS011;44895;47.438;18.978;2024-01-15T09:14:53;24.13;;;16.35;;
59109;SDS011;44895;47.438;18.978;2024-01-15T09:17:57;23.10;;;15.25;;
59109;SDS011;44895;47.438;18.978;2024-01-15T09:21:03;23.17;;;15.60;;
59109;SDS011;44895;47.438;18.978;2024-01-15T09:24:07;22.35;;;14.40;;
59109;SDS011;44895;47.438;18.978;2024-01-15T09:27:11;20.55;;;14.30;;
59109;SDS011;44895;47.438;18.978;2024-01-15T09:30:15;20.08;;;14.57;;
59109;SDS011;44895;47.438;18.978;2024-01-15T09:33:18;20.73;;;13.43;;
59109;SDS011;44895;47.438;18.978;2024-01-15T09:36:22;23.98;;;15.27;;
59109;SDS011;44895;47.438;18.978;2024-01-15T09:39:26;18.27;;;13.70;;
59109;SDS011;44895;47.438;18.978;2024-01-15T09:42:30;19.70;;;14.95;;
59109;SDS011;44895;47.438;18.978;2024-01-15T09:45:34;18.20;;;12.30;;
59109;SDS011;44895;47.438;18.978;2024-01-15T09:48:38;18.98;;;10.50;;
59109;SDS011;44895;47.438;18.978;2024-01-15T09:51:42;14.45;;;9.52;;
59109;SDS011;44895;47.438;18.978;2024-01-15T09:54:46;16.48;;;9.35;;
59109;SDS011;44895;47.438;18.978;2024-01-15T09:57:51;15.63;;;10.07;;
59109;SDS011;44895;47.438;18.978;2024-01-15T10:00:56;13.65;;;8.05;;
59109;SDS011;44895;47.438;18.978;2024-01-15T10:04:00;19.15;;;8.02;;
59109;SDS011;44895;47.438;18.978;2024-01-15T10:07:03;14.95;;;7.45;;
59109;SDS011;44895;47.438;18.978;2024-01-15T10:10:10;13.38;;;8.25;;
59109;SDS011;44895;47.438;18.978;2024-01-15T10:13:14;14.82;;;7.22;;
59109;SDS011;44895;47.438;18.978;2024-01-15T10:16:19;15.32;;;8.38;;
59109;SDS011;44895;47.438;18.978;2024-01-15T10:19:23;12.32;;;6.68;;
59109;SDS011;44895;47.438;18.978;2024-01-15T10:22:26;11.85;;;5.85;;
59109;SDS011;44895;47.438;18.978;2024-01-15T10:25:30;13.32;;;5.95;;
59109;SDS011;44895;47.438;18.978;2024-01-15T10:28:34;10.55;;;5.82;;
59109;SDS011;44895;47.438;18.978;2024-01-15T10:31:38;11.52;;;7.20;;
59109;SDS011;44895;47.438;18.978;2024-01-15T10:34:41;10.55;;;6.00;;
59109;SDS011;44895;47.438;18.978;2024-01-15T10:37:47;13.05;;;6.25;;
59109;SDS011;44895;47.438;18.978;2024-01-15T10:40:51;10.85;;;5.78;;
59109;SDS011;44895;47.438;18.978;2024-01-15T10:47:02;12.07;;;7.18;;
59109;SDS011;44895;47.438;18.978;2024-01-15T10:50:07;8.93;;;4.40;;
59109;SDS011;44895;47.438;18.978;2024-01-15T10:53:14;10.10;;;5.20;;
59109;SDS011;44895;47.438;18.978;2024-01-15T10:56:21;11.88;;;5.70;;
59109;SDS011;44895;47.438;18.978;2024-01-15T10:59:25;9.90;;;5.28;;
59109;SDS011;44895;47.438;18.978;2024-01-15T11:02:29;12.13;;;5.32;;
59109;SDS011;44895;47.438;18.978;2024-01-15T11:05:37;11.23;;;6.18;;
59109;SDS011;44895;47.438;18.978;2024-01-15T11:08:42;14.77;;;6.20;;
59109;SDS011;44895;47.438;18.978;2024-01-15T11:11:46;10.55;;;4.28;;
59109;SDS011;44895;47.438;18.978;2024-01-15T11:15:00;11.18;;;5.43;;
59109;SDS011;44895;47.438;18.978;2024-01-15T11:18:07;10.27;;;4.97;;
59109;SDS011;44895;47.438;18.978;2024-01-15T11:24:35;19.45;;;5.22;;
59109;SDS011;44895;47.438;18.978;2024-01-15T11:27:43;11.52;;;4.35;;
59109;SDS011;44895;47.438;18.978;2024-01-15T11:30:47;9.98;;;4.40;;
59109;SDS011;44895;47.438;18.978;2024-01-15T11:33:52;10.02;;;4.88;;
59109;SDS011;44895;47.438;18.978;2024-01-15T11:40:02;9.00;;;4.45;;
59109;SDS011;44895;47.438;18.978;2024-01-15T11:43:14;11.43;;;4.68;;
59109;SDS011;44895;47.438;18.978;2024-01-15T11:46:20;12.75;;;5.18;;
59109;SDS011;44895;47.438;18.978;2024-01-15T11:49:49;9.32;;;4.50;;
59109;SDS011;44895;47.438;18.978;2024-01-15T11:53:03;9.18;;;4.00;;
59109;SDS011;44895;47.438;18.978;2024-01-15T11:56:16;11.65;;;4.78;;
59109;SDS011;44895;47.438;18.978;2024-01-15T11:59:20;10.27;;;5.57;;
59109;SDS011;44895;47.438;18.978;2024-01-15T12:02:24;10.23;;;5.03;;
59109;SDS011;44895;47.438;18.978;2024-01-15T12:05:28;8.77;;;3.88;;
59109;SDS011;44895;47.438;18.978;2024-01-15T12:08:32;10.13;;;5.28;;
59109;SDS011;44895;47.438;18.978;2024-01-15T12:11:36;10.10;;;4.18;;
59109;SDS011;44895;47.438;18.978;2024-01-15T12:14:42;9.52;;;3.80;;
59109;SDS011;44895;47.438;18.978;2024-01-15T12:17:45;11.95;;;4.50;;
59109;SDS011;44895;47.438;18.978;2024-01-15T12:20:50;14.20;;;7.43;;
59109;SDS011;44895;47.438;18.978;2024-01-15T12:23:57;11.60;;;5.07;;
59109;SDS011;44895;47.438;18.978;2024-01-15T12:27:02;9.30;;;3.08;;
59109;SDS011;44895;47.438;18.978;2024-01-15T12:30:06;10.30;;;5.60;;
59109;SDS011;44895;47.438;18.978;2024-01-15T12:33:10;10.30;;;5.35;;
59109;SDS011;44895;47.438;18.978;2024-01-15T12:36:14;12.25;;;5.53;;
59109;SDS011;44895;47.438;18.978;2024-01-15T12:39:24;11.77;;;4.40;;
59109;SDS011;44895;47.438;18.978;2024-01-15T12:42:28;10.65;;;4.38;;
59109;SDS011;44895;47.438;18.978;2024-01-15T12:45:32;9.32;;;4.60;;
59109;SDS011;44895;47.438;18.978;2024-01-15T12:48:36;11.15;;;4.30;;
59109;SDS011;44895;47.438;18.978;2024-01-15T12:51:40;7.40;;;3.33;;
59109;SDS011;44895;47.438;18.978;2024-01-15T12:54:44;21.90;;;4.63;;
59109;SDS011;44895;47.438;18.978;2024-01-15T12:57:48;8.93;;;3.53;;
59109;SDS011;44895;47.438;18.978;2024-01-15T13:00:53;8.13;;;4.00;;
59109;SDS011;44895;47.438;18.978;2024-01-15T13:03:57;23.02;;;4.45;;
59109;SDS011;44895;47.438;18.978;2024-01-15T13:07:00;7.65;;;3.22;;
59109;SDS011;44895;47.438;18.978;2024-01-15T13:10:05;11.30;;;4.72;;
59109;SDS011;44895;47.438;18.978;2024-01-15T13:13:09;7.88;;;3.80;;
59109;SDS011;44895;47.438;18.978;2024-01-15T13:16:13;11.20;;;4.15;;
59109;SDS011;44895;47.438;18.978;2024-01-15T13:19:17;23.95;;;5.18;;
59109;SDS011;44895;47.438;18.978;2024-01-15T13:22:20;8.27;;;3.70;;
59109;SDS011;44895;47.438;18.978;2024-01-15T13:25:24;7.97;;;3.67;;
59109;SDS011;44895;47.438;18.978;2024-01-15T13:28:28;10.18;;;4.05;;
59109;SDS011;44895;47.438;18.978;2024-01-15T13:31:32;9.95;;;3.72;;
59109;SDS011;44895;47.438;18.978;2024-01-15T13:34:36;7.75;;;3.45;;
59109;SDS011;44895;47.438;18.978;2024-01-15T13:37:40;7.57;;;3.08;;
59109;SDS011;44895;47.438;18.978;2024-01-15T13:40:44;10.70;;;4.03;;
59109;SDS011;44895;47.438;18.978;2024-01-15T13:43:49;10.13;;;4.53;;
59109;SDS011;44895;47.438;18.978;2024-01-15T13:46:54;8.77;;;3.97;;
59109;SDS011;44895;47.438;18.978;2024-01-15T13:49:57;9.88;;;4.95;;
59109;SDS011;44895;47.438;18.978;2024-01-15T13:53:02;8.02;;;3.40;;
59109;SDS011;44895;47.438;18.978;2024-01-15T13:56:07;10.88;;;3.92;;
59109;SDS011;44895;47.438;18.978;2024-01-15T13:59:13;10.07;;;4.63;;
59109;SDS011;44895;47.438;18.978;2024-01-15T14:02:17;8.13;;;3.65;;
59109;SDS011;44895;47.438;18.978;2024-01-15T14:05:21;9.77;;;4.07;;
59109;SDS011;44895;47.438;18.978;2024-01-15T14:08:25;7.60;;;3.30;;
59109;SDS011;44895;47.438;18.978;2024-01-15T14:11:29;7.50;;;3.05;;
59109;SDS011;44895;47.438;18.978;2024-01-15T14:14:33;8.98;;;3.67;;
59109;SDS011;44895;47.438;18.978;2024-01-15T14:17:37;11.05;;;4.75;;
59109;SDS011;44895;47.438;18.978;2024-01-15T14:20:41;10.95;;;4.00;;
59109;SDS011;44895;47.438;18.978;2024-01-15T14:23:45;7.65;;;3.38;;
59109;SDS011;44895;47.438;18.978;2024-01-15T14:26:49;9.00;;;2.58;;
59109;SDS011;44895;47.438;18.978;2024-01-15T14:29:52;6.95;;;3.10;;
59109;SDS011;44895;47.438;18.978;2024-01-15T14:32:56;7.60;;;2.83;;
59109;SDS011;44895;47.438;18.978;2024-01-15T14:36:00;6.97;;;2.53;;
59109;SDS011;44895;47.438;18.978;2024-01-15T14:39:04;8.98;;;4.20;;
59109;SDS011;44895;47.438;18.978;2024-01-15T14:42:08;7.53;;;3.40;;
59109;SDS011;44895;47.438;18.978;2024-01-15T14:45:11;9.65;;;3.20;;
59109;SDS011;44895;47.438;18.978;2024-01-15T14:48:15;7.40;;;2.72;;
59109;SDS011;44895;47.438;18.978;2024-01-15T14:51:19;6.65;;;2.92;;
59109;SDS011;44895;47.438;18.978;2024-01-15T14:54:23;7.70;;;2.70;;
59109;SDS011;44895;47.438;18.978;2024-01-15T14:57:27;8.48;;;3.25;;
59109;SDS011;44895;47.438;18.978;2024-01-15T15:00:31;8.07;;;3.63;;
59109;SDS011;44895;47.438;18.978;2024-01-15T15:03:35;8.95;;;3.55;;
59109;SDS011;44895;47.438;18.978;2024-01-15T15:06:38;9.70;;;3.35;;
59109;SDS011;44895;47.438;18.978;2024-01-15T15:09:42;6.68;;;2.80;;
59109;SDS011;44895;47.438;18.978;2024-01-15T15:12:46;8.68;;;3.25;;
59109;SDS011;44895;47.438;18.978;2024-01-15T15:15:50;7.90;;;3.10;;
59109;SDS011;44895;47.438;18.978;2024-01-15T15:18:54;10.05;;;2.80;;
59109;SDS011;44895;47.438;18.978;2024-01-15T15:21:58;8.02;;;2.60;;
59109;SDS011;44895;47.438;18.978;2024-01-15T15:25:02;7.72;;;3.22;;
59109;SDS011;44895;47.438;18.978;2024-01-15T15:28:06;13.70;;;4.13;;
59109;SDS011;44895;47.438;18.978;2024-01-15T15:31:10;13.32;;;3.60;;
59109;SDS011;44895;47.438;18.978;2024-01-15T15:34:17;9.65;;;3.67;;
59109;SDS011;44895;47.438;18.978;2024-01-15T15:37:21;11.40;;;4.03;;
59109;SDS011;44895;47.438;18.978;2024-01-15T15:40:24;10.93;;;4.45;;
59109;SDS011;44895;47.438;18.978;2024-01-15T15:43:28;15.13;;;6.65;;
59109;SDS011;44895;47.438;18.978;2024-01-15T15:46:32;11.48;;;4.20;;
59109;SDS011;44895;47.438;18.978;2024-01-15T15:49:36;11.43;;;3.72;;
59109;SDS011;44895;47.438;18.978;2024-01-15T15:52:40;9.10;;;3.53;;
59109;SDS011;44895;47.438;18.978;2024-01-15T15:55:43;8.40;;;3.42;;
59109;SDS011;44895;47.438;18.978;2024-01-15T15:58:47;7.70;;;3.20;;
59109;SDS011;44895;47.438;18.978;2024-01-15T16:01:51;9.05;;;3.47;;
59109;SDS011;44895;47.438;18.978;2024-01-15T16:04:55;15.15;;;3.83;;
59109;SDS011;44895;47.438;18.978;2024-01-15T16:07:59;9.38;;;4.25;;
59109;SDS011;44895;47.438;18.978;2024-01-15T16:11:03;8.45;;;3.38;;
59109;SDS011;44895;47.438;18.978;2024-01-15T16:14:06;11.05;;;3.95;;
59109;SDS011;44895;47.438;18.978;2024-01-15T16:17:10;9.65;;;4.00;;
59109;SDS011;44895;47.438;18.978;2024-01-15T16:20:14;10.25;;;4.35;;
59109;SDS011;44895;47.438;18.978;2024-01-15T16:23:18;8.60;;;4.47;;
59109;SDS011;44895;47.438;18.978;2024-01-15T16:26:23;8.25;;;3.28;;
59109;SDS011;44895;47.438;18.978;2024-01-15T16:29:27;9.50;;;4.22;;
59109;SDS011;44895;47.438;18.978;2024-01-15T16:32:31;12.18;;;3.80;;
59109;SDS011;44895;47.438;18.978;2024-01-15T16:35:35;8.35;;;4.43;;
59109;SDS011;44895;47.438;18.978;2024-01-15T16:38:39;10.38;;;4.00;;
59109;SDS011;44895;47.438;18.978;2024-01-15T16:41:42;7.88;;;3.88;;
59109;SDS011;44895;47.438;18.978;2024-01-15T16:44:46;9.13;;;4.38;;
59109;SDS011;44895;47.438;18.978;2024-01-15T16:47:50;8.38;;;3.17;;
59109;SDS011;44895;47.438;18.978;2024-01-15T16:50:54;9.00;;;4.03;;
59109;SDS011;44895;47.438;18.978;2024-01-15T16:53:58;9.32;;;4.13;;
59109;SDS011;44895;47.438;18.978;2024-01-15T16:57:01;7.80;;;3.20;;
59109;SDS011;44895;47.438;18.978;2024-01-15T17:00:05;9.40;;;3.88;;
59109;SDS011;44895;47.438;18.978;2024-01-15T17:03:10;10.55;;;4.28;;
59109;SDS011;44895;47.438;18.978;2024-01-15T17:06:13;10.43;;;5.25;;
59109;SDS011;44895;47.438;18.978;2024-01-15T17:09:17;15.45;;;4.90;;
59109;SDS011;44895;47.438;18.978;2024-01-15T17:12:21;8.60;;;3.90;;
59109;SDS011;44895;47.438;18.978;2024-01-15T17:15:24;10.27;;;4.88;;
59109;SDS011;44895;47.438;18.978;2024-01-15T17:18:28;9.02;;;3.28;;
59109;SDS011;44895;47.438;18.978;2024-01-15T17:21:32;11.68;;;3.67;;
59109;SDS011;44895;47.438;18.978;2024-01-15T17:24:36;7.72;;;3.15;;
59109;SDS011;44895;47.438;18.978;2024-01-15T17:27:39;10.30;;;3.92;;
59109;SDS011;44895;47.438;18.978;2024-01-15T17:30:44;9.00;;;3.10;;
59109;SDS011;44895;47.438;18.978;2024-01-15T17:33:50;9.43;;;3.97;;
59109;SDS011;44895;47.438;18.978;2024-01-15T17:36:53;10.90;;;4.47;;
59109;SDS011;44895;47.438;18.978;2024-01-15T17:39:57;9.75;;;3.78;;
59109;SDS011;44895;47.438;18.978;2024-01-15T17:43:01;9.60;;;2.90;;
59109;SDS011;44895;47.438;18.978;2024-01-15T17:46:05;7.85;;;3.17;;
59109;SDS011;44895;47.438;18.978;2024-01-15T17:49:09;6.97;;;2.95;;
59109;SDS011;44895;47.438;18.978;2024-01-15T17:52:12;7.15;;;2.83;;
59109;SDS011;44895;47.438;18.978;2024-01-15T17:55:16;9.98;;;2.70;;
59109;SDS011;44895;47.438;18.978;2024-01-15T17:58:20;10.73;;;3.00;;
59109;SDS011;44895;47.438;18.978;2024-01-15T18:01:24;7.13;;;2.72;;
59109;SDS011;44895;47.438;18.978;2024-01-15T18:04:28;8.73;;;3.30;;